sensor_id;sensor_type;location;lat;lon;timestamp;P1;durP1;ratioP1;P2;durP2;ratioP2
4078;SDS011;2054;47.858;11.156;2024-03-02T03:45:27;12.55;;;9.57;;
4078;SDS011;2054;47.858;11.156;2024-03-02T03:47:55;15.18;;;9.52;;
4078;SDS011;2054;47.858;11.156;2024-03-02T03:50:22;12.23;;;9.95;;
4078;SDS011;2054;47.858;11.156;2024-03-02T03:52:49;11.63;;;8.80;;
4078;SDS011;2054;47.858;11.156;2024-03-02T03:55:16;13.70;;;9.75;;
4078;SDS011;2054;47.858;11.156;2024-03-02T03:57:43;14.68;;;9.55;;
4078;SDS011;2054;47.858;11.156;2024-03-02T04:00:10;13.15;;;9.82;;
4078;SDS011;2054;47.858;11.156;2024-03-02T04:02:39;11.98;;;9.60;;
4078;SDS011;2054;47.858;11.156;2024-03-02T04:05:06;13.98;;;10.13;;
4078;SDS011;2054;47.858;11.156;2024-03-02T04:07:37;13.65;;;9.77;;
4078;SDS011;2054;47.858;11.156;2024-03-02T04:10:08;14.18;;;10.48;;
4078;SDS011;2054;47.858;11.156;2024-03-02T04:12:37;14.95;;;11.02;;
4078;SDS011;2054;47.858;11.156;2024-03-02T04:15:04;13.65;;;9.85;;
4078;SDS011;2054;47.858;11.156;2024-03-02T04:17:33;12.77;;;9.23;;
4078;SDS011;2054;47.858;11.156;2024-03-02T04:20:02;14.65;;;9.88;;
4078;SDS011;2054;47.858;11.156;2024-03-02T04:22:32;16.10;;;10.60;;
4078;SDS011;2054;47.858;11.156;2024-03-02T04:25:00;16.52;;;10.45;;
4078;SDS011;2054;47.858;11.156;2024-03-02T04:27:29;15.90;;;10.70;;
4078;SDS011;2054;47.858;11.156;2024-03-02T04:29:57;15.50;;;10.68;;
4078;SDS011;2054;47.858;11.156;2024-03-02T04:32:25;16.38;;;10.35;;
4078;SDS011;2054;47.858;11.156;2024-03-02T04:34:52;14.63;;;10.60;;
4078;SDS011;2054;47.858;11.156;2024-03-02T04:37:21;15.55;;;11.35;;
4078;SDS011;2054;47.858;11.156;2024-03-02T04:39:47;14.45;;;11.20;;
4078;SDS011;2054;47.858;11.156;2024-03-02T04:42:14;15.27;;;10.27;;
4078;SDS011;2054;47.858;11.156;2024-03-02T04:44:41;14.77;;;10.98;;
4078;SDS011;2054;47.858;11.156;2024-03-02T04:47:08;14.68;;;10.95;;
4078;SDS011;2054;47.858;11.156;2024-03-02T04:49:35;15.00;;;10.48;;
4078;SDS011;2054;47.858;11.156;2024-03-02T04:52:02;14.38;;;10.23;;
4078;SDS011;2054;47.858;11.156;2024-03-02T04:54:31;16.30;;;10.25;;
4078;SDS011;2054;47.858;11.156;2024-03-02T04:57:18;14.90;;;9.90;;
4078;SDS011;2054;47.858;11.156;2024-03-02T04:59:45;14.43;;;10.75;;
4078;SDS011;2054;47.858;11.156;2024-03-02T05:02:12;14.15;;;9.75;;
4078;SDS011;2054;47.858;11.156;2024-03-02T05:04:40;14.50;;;10.40;;
4078;SDS011;2054;47.858;11.156;2024-03-02T05:07:07;14.10;;;9.90;;
4078;SDS011;2054;47.858;11.156;2024-03-02T05:09:35;13.73;;;10.20;;
4078;SDS011;2054;47.858;11.156;2024-03-02T05:12:02;14.55;;;10.82;;
4078;SDS011;2054;47.858;11.156;2024-03-02T05:14:42;14.63;;;9.57;;
4078;SDS011;2054;47.858;11.156;2024-03-02T05:17:09;14.82;;;10.38;;
4078;SDS011;2054;47.858;11.156;2024-03-02T05:19:36;13.45;;;9.93;;
4078;SDS011;2054;47.858;11.156;2024-03-02T05:22:04;13.95;;;10.38;;
4078;SDS011;2054;47.858;11.156;2024-03-02T05:24:30;14.73;;;10.05;;
4078;SDS011;2054;47.858;11.156;2024-03-02T05:26:59;14.73;;;9.55;;
4078;SDS011;2054;47.858;11.156;2024-03-02T05:29:26;13.55;;;9.55;;
4078;SDS011;2054;47.858;11.156;2024-03-02T05:31:53;16.38;;;10.07;;
4078;SDS011;2054;47.858;11.156;2024-03-02T05:34:19;15.63;;;10.30;;
4078;SDS011;2054;47.858;11.156;2024-03-02T05:36:46;15.05;;;9.35;;
4078;SDS011;2054;47.858;11.156;2024-03-02T05:39:13;13.95;;;9.65;;
4078;SDS011;2054;47.858;11.156;2024-03-02T05:41:40;11.57;;;8.38;;
4078;SDS011;2054;47.858;11.156;2024-03-02T05:44:09;12.52;;;9.15;;
4078;SDS011;2054;47.858;11.156;2024-03-02T05:46:36;11.35;;;8.93;;
4078;SDS011;2054;47.858;11.156;2024-03-02T05:49:03;13.25;;;9.65;;
4078;SDS011;2054;47.858;11.156;2024-03-02T05:51:30;16.33;;;10.98;;
4078;SDS011;2054;47.858;11.156;2024-03-02T05:53:57;15.50;;;10.02;;
4078;SDS011;2054;47.858;11.156;2024-03-02T05:56:25;13.25;;;9.75;;
4078;SDS011;2054;47.858;11.156;2024-03-02T05:58:53;14.27;;;9.55;;
4078;SDS011;2054;47.858;11.156;2024-03-02T06:01:33;13.75;;;9.55;;
4078;SDS011;2054;47.858;11.156;2024-03-02T06:04:00;14.45;;;10.25;;
4078;SDS011;2054;47.858;11.156;2024-03-02T06:06:27;15.30;;;9.70;;
4078;SDS011;2054;47.858;11.156;2024-03-02T06:08:54;15.65;;;10.15;;
4078;SDS011;2054;47.858;11.156;2024-03-02T06:11:21;12.88;;;9.38;;
4078;SDS011;2054;47.858;11.156;2024-03-02T06:13:48;12.25;;;8.65;;
4078;SDS011;2054;47.858;11.156;2024-03-02T06:16:15;12.18;;;8.23;;
4078;SDS011;2054;47.858;11.156;2024-03-02T06:18:44;12.30;;;8.98;;
4078;SDS011;2054;47.858;11.156;2024-03-02T06:21:11;15.88;;;9.55;;
4078;SDS011;2054;47.858;11.156;2024-03-02T06:23:38;12.30;;;8.85;;
4078;SDS011;2054;47.858;11.156;2024-03-02T06:26:05;12.07;;;9.18;;
4078;SDS011;2054;47.858;11.156;2024-03-02T06:28:32;13.13;;;8.15;;
4078;SDS011;2054;47.858;11.156;2024-03-02T06:30:59;11.57;;;8.32;;
4078;SDS011;2054;47.858;11.156;2024-03-02T06:33:27;12.20;;;8.43;;
4078;SDS011;2054;47.858;11.156;2024-03-02T06:35:55;15.32;;;10.60;;
4078;SDS011;2054;47.858;11.156;2024-03-02T06:38:23;15.98;;;10.77;;
4078;SDS011;2054;47.858;11.156;2024-03-02T06:40:50;14.30;;;10.32;;
4078;SDS011;2054;47.858;11.156;2024-03-02T06:43:16;15.15;;;10.52;;
4078;SDS011;2054;47.858;11.156;2024-03-02T06:45:44;13.32;;;9.88;;
4078;SDS011;2054;47.858;11.156;2024-03-02T06:48:11;13.13;;;9.43;;
4078;SDS011;2054;47.858;11.156;2024-03-02T06:50:37;13.27;;;9.02;;
4078;SDS011;2054;47.858;11.156;2024-03-02T06:53:06;12.35;;;9.00;;
4078;SDS011;2054;47.858;11.156;2024-03-02T06:55:33;13.27;;;9.63;;
4078;SDS011;2054;47.858;11.156;2024-03-02T06:58:00;12.55;;;8.88;;
4078;SDS011;2054;47.858;11.156;2024-03-02T07:00:27;13.25;;;9.20;;
4078;SDS011;2054;47.858;11.156;2024-03-02T07:02:54;13.15;;;9.00;;
4078;SDS011;2054;47.858;11.156;2024-03-02T07:05:21;14.27;;;8.88;;
4078;SDS011;2054;47.858;11.156;2024-03-02T07:07:48;12.60;;;9.25;;
4078;SDS011;2054;47.858;11.156;2024-03-02T07:10:16;13.55;;;9.15;;
4078;SDS011;2054;47.858;11.156;2024-03-02T07:12:52;12.68;;;9.02;;
4078;SDS011;2054;47.858;11.156;2024-03-02T07:15:19;16.13;;;10.93;;
4078;SDS011;2054;47.858;11.156;2024-03-02T07:18:09;18.65;;;11.77;;
4078;SDS011;2054;47.858;11.156;2024-03-02T07:20:37;16.73;;;9.55;;
4078;SDS011;2054;47.858;11.156;2024-03-02T07:23:04;13.50;;;9.35;;
4078;SDS011;2054;47.858;11.156;2024-03-02T07:25:33;13.45;;;9.43;;
4078;SDS011;2054;47.858;11.156;2024-03-02T07:28:01;28.75;;;15.63;;
4078;SDS011;2054;47.858;11.156;2024-03-02T07:30:29;32.08;;;18.00;;
4078;SDS011;2054;47.858;11.156;2024-03-02T07:32:57;27.33;;;15.98;;
4078;SDS011;2054;47.858;11.156;2024-03-02T07:35:24;26.27;;;14.63;;
4078;SDS011;2054;47.858;11.156;2024-03-02T07:37:53;31.50;;;18.55;;
4078;SDS011;2054;47.858;11.156;2024-03-02T07:40:19;30.92;;;19.58;;
4078;SDS011;2054;47.858;11.156;2024-03-02T07:42:48;25.42;;;14.80;;
4078;SDS011;2054;47.858;11.156;2024-03-02T07:45:15;26.13;;;16.02;;
4078;SDS011;2054;47.858;11.156;2024-03-02T07:47:42;25.48;;;15.77;;
4078;SDS011;2054;47.858;11.156;2024-03-02T07:50:09;18.98;;;13.00;;
4078;SDS011;2054;47.858;11.156;2024-03-02T07:52:36;18.77;;;12.48;;
4078;SDS011;2054;47.858;11.156;2024-03-02T07:55:03;18.02;;;11.65;;
4078;SDS011;2054;47.858;11.156;2024-03-02T07:57:31;19.70;;;12.40;;
4078;SDS011;2054;47.858;11.156;2024-03-02T07:59:59;17.17;;;11.68;;
4078;SDS011;2054;47.858;11.156;2024-03-02T08:02:26;16.75;;;11.23;;
4078;SDS011;2054;47.858;11.156;2024-03-02T08:04:55;16.13;;;11.20;;
4078;SDS011;2054;47.858;11.156;2024-03-02T08:07:22;15.27;;;10.35;;
4078;SDS011;2054;47.858;11.156;2024-03-02T08:09:49;17.00;;;11.13;;
4078;SDS011;2054;47.858;11.156;2024-03-02T08:12:16;17.25;;;10.85;;
4078;SDS011;2054;47.858;11.156;2024-03-02T08:14:44;16.83;;;10.93;;
4078;SDS011;2054;47.858;11.156;2024-03-02T08:17:13;15.68;;;10.80;;
4078;SDS011;2054;47.858;11.156;2024-03-02T08:19:40;15.30;;;10.70;;
4078;SDS011;2054;47.858;11.156;2024-03-02T08:22:07;15.02;;;9.90;;
4078;SDS011;2054;47.858;11.156;2024-03-02T08:24:34;13.05;;;9.35;;
4078;SDS011;2054;47.858;11.156;2024-03-02T08:27:02;15.10;;;10.50;;
4078;SDS011;2054;47.858;11.156;2024-03-02T08:29:29;15.80;;;10.38;;
4078;SDS011;2054;47.858;11.156;2024-03-02T08:31:57;13.52;;;10.02;;
4078;SDS011;2054;47.858;11.156;2024-03-02T08:34:28;15.02;;;10.27;;
4078;SDS011;2054;47.858;11.156;2024-03-02T08:36:55;12.05;;;8.90;;
4078;SDS011;2054;47.858;11.156;2024-03-02T08:39:22;13.73;;;10.40;;
4078;SDS011;2054;47.858;11.156;2024-03-02T08:41:52;14.82;;;9.93;;
4078;SDS011;2054;47.858;11.156;2024-03-02T08:44:19;11.23;;;8.30;;
4078;SDS011;2054;47.858;11.156;2024-03-02T08:46:46;11.27;;;8.48;;
4078;SDS011;2054;47.858;11.156;2024-03-02T08:49:14;10.40;;;7.25;;
4078;SDS011;2054;47.858;11.156;2024-03-02T08:51:42;11.40;;;7.95;;
4078;SDS011;2054;47.858;11.156;2024-03-02T08:54:09;9.68;;;7.35;;
4078;SDS011;2054;47.858;11.156;2024-03-02T08:56:36;9.13;;;7.28;;
4078;SDS011;2054;47.858;11.156;2024-03-02T08:59:03;10.13;;;7.65;;
4078;SDS011;2054;47.858;11.156;2024-03-02T09:01:30;9.82;;;7.68;;
4078;SDS011;2054;47.858;11.156;2024-03-02T09:04:01;10.52;;;7.95;;
4078;SDS011;2054;47.858;11.156;2024-03-02T09:06:28;9.85;;;7.53;;
4078;SDS011;2054;47.858;11.156;2024-03-02T09:08:57;10.75;;;7.65;;
4078;SDS011;2054;47.858;11.156;2024-03-02T09:11:25;11.88;;;8.68;;
4078;SDS011;2054;47.858;11.156;2024-03-02T09:13:52;10.50;;;8.02;;
4078;SDS011;2054;47.858;11.156;2024-03-02T09:16:21;11.10;;;8.40;;
4078;SDS011;2054;47.858;11.156;2024-03-02T09:18:52;11.77;;;8.30;;
4078;SDS011;2054;47.858;11.156;2024-03-02T09:21:20;9.25;;;6.90;;
4078;SDS011;2054;47.858;11.156;2024-03-02T09:23:47;8.65;;;6.82;;
4078;SDS011;2054;47.858;11.156;2024-03-02T09:26:16;8.82;;;7.05;;
4078;SDS011;2054;47.858;11.156;2024-03-02T09:28:44;8.60;;;6.80;;
4078;SDS011;2054;47.858;11.156;2024-03-02T09:31:11;7.95;;;6.30;;
4078;SDS011;2054;47.858;11.156;2024-03-02T09:33:38;8.13;;;6.65;;
4078;SDS011;2054;47.858;11.156;2024-03-02T09:36:05;8.60;;;6.85;;
4078;SDS011;2054;47.858;11.156;2024-03-02T09:38:43;9.00;;;6.13;;
4078;SDS011;2054;47.858;11.156;2024-03-02T09:41:12;9.50;;;7.63;;
4078;SDS011;2054;47.858;11.156;2024-03-02T09:43:41;10.50;;;7.50;;
4078;SDS011;2054;47.858;11.156;2024-03-02T09:46:08;8.55;;;7.28;;
4078;SDS011;2054;47.858;11.156;2024-03-02T09:48:36;11.25;;;7.50;;
4078;SDS011;2054;47.858;11.156;2024-03-02T09:51:04;12.38;;;7.50;;
4078;SDS011;2054;47.858;11.156;2024-03-02T09:53:33;9.30;;;6.60;;
4078;SDS011;2054;47.858;11.156;2024-03-02T09:56:00;8.40;;;6.47;;
4078;SDS011;2054;47.858;11.156;2024-03-02T09:58:27;8.88;;;6.88;;
4078;SDS011;2054;47.858;11.156;2024-03-02T10:00:57;9.07;;;6.95;;
4078;SDS011;2054;47.858;11.156;2024-03-02T10:03:24;8.65;;;6.47;;
4078;SDS011;2054;47.858;11.156;2024-03-02T10:05:51;7.90;;;6.22;;
4078;SDS011;2054;47.858;11.156;2024-03-02T10:08:19;8.00;;;6.45;;
4078;SDS011;2054;47.858;11.156;2024-03-02T10:10:46;8.85;;;7.03;;
4078;SDS011;2054;47.858;11.156;2024-03-02T10:13:13;9.55;;;7.00;;
4078;SDS011;2054;47.858;11.156;2024-03-02T10:15:41;8.57;;;6.97;;
4078;SDS011;2054;47.858;11.156;2024-03-02T10:18:10;7.35;;;6.20;;
4078;SDS011;2054;47.858;11.156;2024-03-02T10:20:38;6.65;;;5.93;;
4078;SDS011;2054;47.858;11.156;2024-03-02T10:23:12;7.75;;;6.40;;
4078;SDS011;2054;47.858;11.156;2024-03-02T10:25:40;7.68;;;6.38;;
4078;SDS011;2054;47.858;11.156;2024-03-02T10:28:07;8.35;;;6.15;;
4078;SDS011;2054;47.858;11.156;2024-03-02T10:30:34;7.57;;;6.00;;
4078;SDS011;2054;47.858;11.156;2024-03-02T10:33:02;8.50;;;5.38;;
4078;SDS011;2054;47.858;11.156;2024-03-02T10:35:32;10.98;;;7.35;;
4078;SDS011;2054;47.858;11.156;2024-03-02T10:38:01;5.97;;;4.65;;
4078;SDS011;2054;47.858;11.156;2024-03-02T10:40:30;4.88;;;3.78;;
4078;SDS011;2054;47.858;11.156;2024-03-02T10:42:58;3.35;;;2.70;;
4078;SDS011;2054;47.858;11.156;2024-03-02T10:45:27;3.00;;;2.70;;
4078;SDS011;2054;47.858;11.156;2024-03-02T10:47:55;3.22;;;2.70;;
4078;SDS011;2054;47.858;11.156;2024-03-02T10:50:23;3.55;;;3.25;;
4078;SDS011;2054;47.858;11.156;2024-03-02T10:52:51;3.97;;;3.55;;
4078;SDS011;2054;47.858;11.156;2024-03-02T10:55:18;4.10;;;3.70;;
4078;SDS011;2054;47.858;11.156;2024-03-02T10:57:49;6.40;;;3.97;;
4078;SDS011;2054;47.858;11.156;2024-03-02T11:00:17;5.80;;;4.43;;
4078;SDS011;2054;47.858;11.156;2024-03-02T11:02:50;8.52;;;4.00;;
4078;SDS011;2054;47.858;11.156;2024-03-02T11:05:21;6.88;;;4.40;;
4078;SDS011;2054;47.858;11.156;2024-03-02T11:07:56;5.13;;;4.22;;
4078;SDS011;2054;47.858;11.156;2024-03-02T11:10:26;5.68;;;4.63;;
4078;SDS011;2054;47.858;11.156;2024-03-02T11:12:59;5.53;;;4.32;;
4078;SDS011;2054;47.858;11.156;2024-03-02T11:15:29;6.88;;;4.05;;
4078;SDS011;2054;47.858;11.156;2024-03-02T11:17:57;4.40;;;3.63;;
4078;SDS011;2054;47.858;11.156;2024-03-02T11:20:25;4.53;;;3.58;;
4078;SDS011;2054;47.858;11.156;2024-03-02T11:22:53;4.63;;;3.85;;
4078;SDS011;2054;47.858;11.156;2024-03-02T11:25:22;4.45;;;3.83;;
4078;SDS011;2054;47.858;11.156;2024-03-02T11:28:01;7.88;;;3.85;;
4078;SDS011;2054;47.858;11.156;2024-03-02T11:30:48;5.80;;;3.55;;
4078;SDS011;2054;47.858;11.156;2024-03-02T11:33:16;3.95;;;3.40;;
4078;SDS011;2054;47.858;11.156;2024-03-02T11:35:55;3.10;;;2.80;;
4078;SDS011;2054;47.858;11.156;2024-03-02T11:38:28;4.32;;;2.88;;
4078;SDS011;2054;47.858;11.156;2024-03-02T11:41:00;3.33;;;2.53;;
4078;SDS011;2054;47.858;11.156;2024-03-02T11:43:28;3.83;;;2.83;;
4078;SDS011;2054;47.858;11.156;2024-03-02T11:45:59;3.17;;;1.77;;
4078;SDS011;2054;47.858;11.156;2024-03-02T11:48:29;4.63;;;2.65;;
4078;SDS011;2054;47.858;11.156;2024-03-02T11:50:57;3.05;;;2.60;;
4078;SDS011;2054;47.858;11.156;2024-03-02T11:53:29;3.70;;;2.17;;
4078;SDS011;2054;47.858;11.156;2024-03-02T11:55:58;4.85;;;2.15;;
4078;SDS011;2054;47.858;11.156;2024-03-02T11:58:26;4.53;;;2.15;;
4078;SDS011;2054;47.858;11.156;2024-03-02T12:00:54;4.80;;;2.28;;
4078;SDS011;2054;47.858;11.156;2024-03-02T12:03:22;2.75;;;2.22;;
4078;SDS011;2054;47.858;11.156;2024-03-02T12:05:50;7.25;;;3.38;;
4078;SDS011;2054;47.858;11.156;2024-03-02T12:08:19;5.75;;;3.05;;
4078;SDS011;2054;47.858;11.156;2024-03-02T12:10:57;5.53;;;3.25;;
4078;SDS011;2054;47.858;11.156;2024-03-02T12:13:25;4.80;;;3.50;;
4078;SDS011;2054;47.858;11.156;2024-03-02T12:15:53;3.97;;;3.20;;
4078;SDS011;2054;47.858;11.156;2024-03-02T12:18:21;9.05;;;3.78;;
4078;SDS011;2054;47.858;11.156;2024-03-02T12:20:48;4.72;;;3.70;;
4078;SDS011;2054;47.858;11.156;2024-03-02T12:23:17;4.40;;;3.10;;
4078;SDS011;2054;47.858;11.156;2024-03-02T12:25:45;5.88;;;3.70;;
4078;SDS011;2054;47.858;11.156;2024-03-02T12:28:14;5.13;;;3.70;;
4078;SDS011;2054;47.858;11.156;2024-03-02T12:30:41;4.85;;;3.75;;
4078;SDS011;2054;47.858;11.156;2024-03-02T12:33:08;4.97;;;3.70;;
4078;SDS011;2054;47.858;11.156;2024-03-02T12:35:38;6.03;;;3.55;;
4078;SDS011;2054;47.858;11.156;2024-03-02T12:38:11;5.00;;;4.00;;
4078;SDS011;2054;47.858;11.156;2024-03-02T12:40:38;6.82;;;4.20;;
4078;SDS011;2054;47.858;11.156;2024-03-02T12:43:05;7.20;;;4.97;;
4078;SDS011;2054;47.858;11.156;2024-03-02T12:45:35;7.60;;;4.85;;
4078;SDS011;2054;47.858;11.156;2024-03-02T12:48:02;7.13;;;5.05;;
4078;SDS011;2054;47.858;11.156;2024-03-02T12:50:30;9.45;;;5.32;;
4078;SDS011;2054;47.858;11.156;2024-03-02T12:52:57;10.20;;;5.50;;
4078;SDS011;2054;47.858;11.156;2024-03-02T12:55:24;8.02;;;5.35;;
4078;SDS011;2054;47.858;11.156;2024-03-02T12:57:54;7.68;;;5.22;;
4078;SDS011;2054;47.858;11.156;2024-03-02T13:00:22;8.45;;;5.38;;
4078;SDS011;2054;47.858;11.156;2024-03-02T13:02:50;9.65;;;5.10;;
4078;SDS011;2054;47.858;11.156;2024-03-02T13:05:18;8.10;;;5.28;;
4078;SDS011;2054;47.858;11.156;2024-03-02T13:07:46;7.90;;;4.88;;
4078;SDS011;2054;47.858;11.156;2024-03-02T13:10:13;10.52;;;5.97;;
4078;SDS011;2054;47.858;11.156;2024-03-02T13:12:42;9.55;;;5.68;;
4078;SDS011;2054;47.858;11.156;2024-03-02T13:15:09;8.27;;;5.55;;
4078;SDS011;2054;47.858;11.156;2024-03-02T13:17:37;9.98;;;5.57;;
4078;SDS011;2054;47.858;11.156;2024-03-02T13:20:07;12.55;;;6.65;;
4078;SDS011;2054;47.858;11.156;2024-03-02T13:22:35;7.55;;;4.13;;
4078;SDS011;2054;47.858;11.156;2024-03-02T13:25:02;5.75;;;4.55;;
4078;SDS011;2054;47.858;11.156;2024-03-02T13:27:30;8.10;;;4.50;;
4078;SDS011;2054;47.858;11.156;2024-03-02T13:29:57;6.95;;;4.60;;
4078;SDS011;2054;47.858;11.156;2024-03-02T13:32:24;6.30;;;4.45;;
4078;SDS011;2054;47.858;11.156;2024-03-02T13:34:51;7.30;;;4.72;;
4078;SDS011;2054;47.858;11.156;2024-03-02T13:37:20;6.25;;;4.80;;
4078;SDS011;2054;47.858;11.156;2024-03-02T13:39:47;6.32;;;5.20;;
4078;SDS011;2054;47.858;11.156;2024-03-02T13:42:14;8.85;;;5.57;;
4078;SDS011;2054;47.858;11.156;2024-03-02T13:44:43;8.98;;;4.88;;
4078;SDS011;2054;47.858;11.156;2024-03-02T13:47:12;7.00;;;4.75;;
4078;SDS011;2054;47.858;11.156;2024-03-02T13:49:38;7.93;;;5.10;;
4078;SDS011;2054;47.858;11.156;2024-03-02T13:52:08;9.10;;;5.03;;
4078;SDS011;2054;47.858;11.156;2024-03-02T13:54:39;10.00;;;5.40;;
4078;SDS011;2054;47.858;11.156;2024-03-02T13:57:08;7.00;;;4.82;;
4078;SDS011;2054;47.858;11.156;2024-03-02T13:59:36;6.00;;;4.20;;
4078;SDS011;2054;47.858;11.156;2024-03-02T14:02:04;7.43;;;4.28;;
4078;SDS011;2054;47.858;11.156;2024-03-02T14:04:32;8.00;;;5.18;;
4078;SDS011;2054;47.858;11.156;2024-03-02T14:07:00;8.82;;;4.43;;
4078;SDS011;2054;47.858;11.156;2024-03-02T14:09:27;8.32;;;4.38;;
4078;SDS011;2054;47.858;11.156;2024-03-02T14:11:56;6.93;;;4.40;;
4078;SDS011;2054;47.858;11.156;2024-03-02T14:14:25;9.00;;;4.40;;
4078;SDS011;2054;47.858;11.156;2024-03-02T14:16:54;6.53;;;4.10;;
4078;SDS011;2054;47.858;11.156;2024-03-02T14:19:21;8.20;;;4.90;;
4078;SDS011;2054;47.858;11.156;2024-03-02T14:21:48;9.43;;;4.38;;
4078;SDS011;2054;47.858;11.156;2024-03-02T14:24:15;9.32;;;4.78;;
4078;SDS011;2054;47.858;11.156;2024-03-02T14:26:42;5.88;;;4.18;;
4078;SDS011;2054;47.858;11.156;2024-03-02T14:29:10;7.28;;;4.63;;
4078;SDS011;2054;47.858;11.156;2024-03-02T14:31:37;7.13;;;4.63;;
4078;SDS011;2054;47.858;11.156;2024-03-02T14:34:04;9.48;;;5.22;;
4078;SDS011;2054;47.858;11.156;2024-03-02T14:36:31;8.30;;;5.07;;
4078;SDS011;2054;47.858;11.156;2024-03-02T14:38:59;7.53;;;4.72;;
4078;SDS011;2054;47.858;11.156;2024-03-02T14:41:25;8.07;;;4.95;;
4078;SDS011;2054;47.858;11.156;2024-03-02T14:43:53;7.50;;;4.68;;
4078;SDS011;2054;47.858;11.156;2024-03-02T14:46:22;7.35;;;4.85;;
4078;SDS011;2054;47.858;11.156;2024-03-02T14:48:50;9.45;;;5.00;;
4078;SDS011;2054;47.858;11.156;2024-03-02T14:51:17;7.70;;;5.32;;
4078;SDS011;2054;47.858;11.156;2024-03-02T14:53:43;8.05;;;5.30;;
4078;SDS011;2054;47.858;11.156;2024-03-02T14:56:11;8.75;;;5.10;;
4078;SDS011;2054;47.858;11.156;2024-03-02T14:58:39;8.95;;;4.93;;
4078;SDS011;2054;47.858;11.156;2024-03-02T15:01:06;8.20;;;5.13;;
4078;SDS011;2054;47.858;11.156;2024-03-02T15:03:37;7.70;;;5.10;;
4078;SDS011;2054;47.858;11.156;2024-03-02T15:06:04;6.63;;;5.10;;
4078;SDS011;2054;47.858;11.156;2024-03-02T15:08:32;8.43;;;5.70;;
4078;SDS011;2054;47.858;11.156;2024-03-02T15:10:59;10.48;;;6.28;;
4078;SDS011;2054;47.858;11.156;2024-03-02T15:13:28;9.95;;;7.20;;
4078;SDS011;2054;47.858;11.156;2024-03-02T15:15:55;11.55;;;7.35;;
4078;SDS011;2054;47.858;11.156;2024-03-02T15:18:23;11.73;;;7.15;;
4078;SDS011;2054;47.858;11.156;2024-03-02T15:20:51;12.75;;;7.80;;
4078;SDS011;2054;47.858;11.156;2024-03-02T15:23:18;11.50;;;7.53;;
4078;SDS011;2054;47.858;11.156;2024-03-02T15:25:45;12.20;;;7.57;;
4078;SDS011;2054;47.858;11.156;2024-03-02T15:28:12;13.75;;;8.68;;
4078;SDS011;2054;47.858;11.156;2024-03-02T15:30:39;12.75;;;8.48;;
4078;SDS011;2054;47.858;11.156;2024-03-02T15:33:06;11.88;;;8.52;;
4078;SDS011;2054;47.858;11.156;2024-03-02T15:35:33;16.05;;;9.23;;
4078;SDS011;2054;47.858;11.156;2024-03-02T15:38:02;13.00;;;8.93;;
4078;SDS011;2054;47.858;11.156;2024-03-02T15:40:29;13.35;;;9.10;;
4078;SDS011;2054;47.858;11.156;2024-03-02T15:42:56;16.75;;;9.93;;
4078;SDS011;2054;47.858;11.156;2024-03-02T15:45:23;17.00;;;10.88;;
4078;SDS011;2054;47.858;11.156;2024-03-02T15:47:58;14.38;;;9.25;;
4078;SDS011;2054;47.858;11.156;2024-03-02T15:50:25;15.15;;;9.70;;
4078;SDS011;2054;47.858;11.156;2024-03-02T15:52:52;14.30;;;9.43;;
4078;SDS011;2054;47.858;11.156;2024-03-02T15:55:22;13.27;;;9.68;;
4078;SDS011;2054;47.858;11.156;2024-03-02T15:57:49;17.15;;;10.38;;
4078;SDS011;2054;47.858;11.156;2024-03-02T16:00:16;16.42;;;10.18;;
4078;SDS011;2054;47.858;11.156;2024-03-02T16:02:43;16.55;;;10.45;;
4078;SDS011;2054;47.858;11.156;2024-03-02T16:05:10;18.75;;;11.68;;
4078;SDS011;2054;47.858;11.156;2024-03-02T16:07:38;43.15;;;23.45;;
4078;SDS011;2054;47.858;11.156;2024-03-02T16:10:05;19.42;;;11.25;;
4078;SDS011;2054;47.858;11.156;2024-03-02T16:12:36;16.75;;;11.15;;
4078;SDS011;2054;47.858;11.156;2024-03-02T16:15:03;17.30;;;12.55;;
4078;SDS011;2054;47.858;11.156;2024-03-02T16:17:34;16.67;;;11.48;;
4078;SDS011;2054;47.858;11.156;2024-03-02T16:20:01;17.73;;;11.75;;
4078;SDS011;2054;47.858;11.156;2024-03-02T16:22:31;20.33;;;11.48;;
4078;SDS011;2054;47.858;11.156;2024-03-02T16:24:58;18.90;;;10.98;;
4078;SDS011;2054;47.858;11.156;2024-03-02T16:27:25;20.88;;;12.70;;
4078;SDS011;2054;47.858;11.156;2024-03-02T16:29:54;20.20;;;11.55;;
4078;SDS011;2054;47.858;11.156;2024-03-02T16:32:23;20.58;;;12.10;;
4078;SDS011;2054;47.858;11.156;2024-03-02T16:34:51;21.70;;;11.90;;
4078;SDS011;2054;47.858;11.156;2024-03-02T16:37:18;19.67;;;12.20;;
4078;SDS011;2054;47.858;11.156;2024-03-02T16:39:45;20.83;;;12.57;;
4078;SDS011;2054;47.858;11.156;2024-03-02T16:42:13;18.95;;;12.65;;
4078;SDS011;2054;47.858;11.156;2024-03-02T16:44:41;19.05;;;12.07;;
4078;SDS011;2054;47.858;11.156;2024-03-02T16:47:09;18.35;;;11.70;;
4078;SDS011;2054;47.858;11.156;2024-03-02T16:49:36;19.02;;;12.32;;
4078;SDS011;2054;47.858;11.156;2024-03-02T16:52:03;20.75;;;12.35;;
4078;SDS011;2054;47.858;11.156;2024-03-02T16:54:31;20.60;;;12.38;;
4078;SDS011;2054;47.858;11.156;2024-03-02T16:56:57;20.70;;;12.68;;
4078;SDS011;2054;47.858;11.156;2024-03-02T16:59:24;23.90;;;13.90;;
4078;SDS011;2054;47.858;11.156;2024-03-02T17:01:51;23.98;;;13.00;;
4078;SDS011;2054;47.858;11.156;2024-03-02T17:04:20;23.30;;;13.45;;
4078;SDS011;2054;47.858;11.156;2024-03-02T17:06:47;23.23;;;15.25;;
4078;SDS011;2054;47.858;11.156;2024-03-02T17:09:14;19.20;;;12.25;;
4078;SDS011;2054;47.858;11.156;2024-03-02T17:11:42;22.15;;;13.13;;
4078;SDS011;2054;47.858;11.156;2024-03-02T17:14:09;19.63;;;11.95;;
4078;SDS011;2054;47.858;11.156;2024-03-02T17:16:36;18.80;;;12.02;;
4078;SDS011;2054;47.858;11.156;2024-03-02T17:19:03;18.15;;;11.50;;
4078;SDS011;2054;47.858;11.156;2024-03-02T17:21:32;83.45;;;43.10;;
4078;SDS011;2054;47.858;11.156;2024-03-02T17:23:58;33.05;;;17.45;;
4078;SDS011;2054;47.858;11.156;2024-03-02T17:26:27;28.67;;;16.00;;
4078;SDS011;2054;47.858;11.156;2024-03-02T17:28:55;26.48;;;15.77;;
4078;SDS011;2054;47.858;11.156;2024-03-02T17:31:21;23.10;;;12.45;;
4078;SDS011;2054;47.858;11.156;2024-03-02T17:33:48;19.67;;;12.45;;
4078;SDS011;2054;47.858;11.156;2024-03-02T17:36:15;22.42;;;13.05;;
4078;SDS011;2054;47.858;11.156;2024-03-02T17:38:44;21.30;;;11.88;;
4078;SDS011;2054;47.858;11.156;2024-03-02T17:41:11;18.52;;;11.55;;
4078;SDS011;2054;47.858;11.156;2024-03-02T17:43:38;17.48;;;11.07;;
4078;SDS011;2054;47.858;11.156;2024-03-02T17:46:05;18.30;;;11.07;;
4078;SDS011;2054;47.858;11.156;2024-03-02T17:48:32;18.15;;;10.98;;
4078;SDS011;2054;47.858;11.156;2024-03-02T17:50:59;18.27;;;11.55;;
4078;SDS011;2054;47.858;11.156;2024-03-02T17:53:26;18.73;;;11.18;;
4078;SDS011;2054;47.858;11.156;2024-03-02T17:55:56;17.08;;;10.88;;
4078;SDS011;2054;47.858;11.156;2024-03-02T17:58:23;16.92;;;11.10;;
4078;SDS011;2054;47.858;11.156;2024-03-02T18:00:50;19.75;;;11.65;;
4078;SDS011;2054;47.858;11.156;2024-03-02T18:03:16;22.25;;;12.15;;
4078;SDS011;2054;47.858;11.156;2024-03-02T18:05:43;26.02;;;14.75;;
4078;SDS011;2054;47.858;11.156;2024-03-02T18:08:10;33.45;;;21.92;;
4078;SDS011;2054;47.858;11.156;2024-03-02T18:10:38;23.80;;;13.18;;
4078;SDS011;2054;47.858;11.156;2024-03-02T18:13:06;25.40;;;14.40;;
4078;SDS011;2054;47.858;11.156;2024-03-02T18:15:33;24.13;;;13.05;;
4078;SDS011;2054;47.858;11.156;2024-03-02T18:18:00;20.80;;;12.80;;
4078;SDS011;2054;47.858;11.156;2024-03-02T18:20:27;28.63;;;15.93;;
4078;SDS011;2054;47.858;11.156;2024-03-02T18:22:54;27.45;;;15.63;;
4078;SDS011;2054;47.858;11.156;2024-03-02T18:25:23;26.13;;;14.80;;
4078;SDS011;2054;47.858;11.156;2024-03-02T18:27:50;26.92;;;15.48;;
4078;SDS011;2054;47.858;11.156;2024-03-02T18:30:19;28.85;;;15.27;;
4078;SDS011;2054;47.858;11.156;2024-03-02T18:32:45;28.25;;;15.82;;
4078;SDS011;2054;47.858;11.156;2024-03-02T18:35:13;26.48;;;14.85;;
4078;SDS011;2054;47.858;11.156;2024-03-02T18:37:40;27.48;;;15.65;;